map of KHJH home
KHJH - Airport
Location
City:  Hebron, Nebraska, United States
Name:Hebron Municipal Airport
ICAO:KHJH
FAA LID:HJH

Details
Type:Airport (Airfield)
Use:Public/Civil
Latitude:4009'07"N (40.151944)
Longitude:9735'04"W (-97.584527)
Datum:WGS 1984
Elevation:1468 ft (447 m)
Variation:3.75E (WMM2015 magnetic declination)
-0.10 annual change
Runways:2
Longest:3600 × 60 ft (1097 × 18.5 m), paved

Time
Time Zone:UTC-6 (DST-5)
Local Time:

Weather
METAR:KHJH 111255Z AUTO 31011KT 10SM CLR 08/M10 A3005 RMK AO2 T00751096

Related Locations
Nearby:
Farthest:RRG: 10633 mi / 17113 km
Plaine Corail [Sir Gatan Duval Airport (Plaine Corail Airport)], Rodrigues Island, MU

Find:

   beyond  
but within

Other Information
Maps:
NOTAMs:
Links:
Sources:

  
flag of United States
flag of Nebraska
  

Sectional Chart

Flight Planning
at skyvector.com

Satellite Image

Google Maps Satellite view

 

Copyright © 2004-2017 Karl L. Swartz. All rights reserved.
The Great Circle Mapper name and logo are trademarks of the Great Circle Mapper.
All other trademarks mentioned herein belong to their respective owners.
Please see credits for attibutions and further copyright information.

  Follow gcmap on Facebook Follow gcmap on Twitter Follow gcmap on Google+ GCmap on LinkedIn

hCard Microformat

Geo Microformat